Time;durP1;ratioP1;P1;durP2;ratioP2;P2;SDS_P1;SDS_P2;PMS_P1;PMS_P2;Temp;Humidity;BMP_temperature;BMP_pressure;BME280_temperature;BME280_humidity;BME280_pressure;Samples;Min_cycle;Max_cycle;Signal;HPM_P1;HPM_P2
2022/04/15 00:02:27;;;;;;;7.28;2.53;;;;;;;9.43;39.23;94369.00;5083882;28;20145;-74
2022/04/15 00:04:53;;;;;;;5.57;2.83;;;;;;;9.44;40.14;94373.25;5083555;28;20036;-75
2022/04/15 00:07:18;;;;;;;6.40;2.70;;;;;;;9.43;40.66;94376.19;5083589;28;20245;-75
2022/04/15 00:09:44;;;;;;;6.72;3.00;;;;;;;9.41;41.20;94376.47;5082283;28;20016;-75
2022/04/15 00:12:17;;;;;;;9.30;2.67;;;;;;;9.38;41.25;94379.75;5083609;28;20203;-75
2022/04/15 00:14:43;;;;;;;8.95;3.47;;;;;;;9.33;40.45;94376.38;5083384;28;20222;-75
2022/04/15 00:17:08;;;;;;;5.90;3.10;;;;;;;9.33;39.31;94369.16;5083403;28;20024;-76
2022/04/15 00:19:34;;;;;;;6.68;3.28;;;;;;;9.36;38.71;94381.09;5083142;28;20262;-75
2022/04/15 00:21:59;;;;;;;8.95;3.33;;;;;;;9.37;38.37;94372.03;5083250;28;20031;-76
2022/04/15 00:24:25;;;;;;;10.50;3.75;;;;;;;9.30;38.74;94372.44;5083306;28;20021;-76
2022/04/15 00:26:51;;;;;;;6.57;3.63;;;;;;;9.28;38.83;94377.25;5082949;28;20020;-76
2022/04/15 00:29:17;;;;;;;22.48;4.45;;;;;;;9.27;38.90;94378.31;5082973;28;20037;-76
2022/04/15 00:31:42;;;;;;;12.93;3.95;;;;;;;9.31;38.88;94370.56;5083038;28;20095;-76
2022/04/15 00:34:08;;;;;;;9.82;3.15;;;;;;;9.34;38.96;94378.75;5083257;28;20063;-75
2022/04/15 00:36:33;;;;;;;11.85;2.85;;;;;;;9.35;38.79;94382.97;5083094;28;20192;-74
2022/04/15 00:38:59;;;;;;;16.90;5.22;;;;;;;9.35;38.84;94375.00;5083042;28;20031;-75
2022/04/15 00:41:24;;;;;;;5.50;2.75;;;;;;;9.36;39.41;94373.09;5082822;28;20092;-75
2022/04/15 00:43:53;;;;;;;12.88;4.57;;;;;;;9.36;39.61;94379.25;5082883;28;20241;-76
2022/04/15 00:46:18;;;;;;;10.65;3.95;;;;;;;9.34;39.36;94376.09;5082865;28;20024;-76
2022/04/15 00:48:44;;;;;;;12.63;3.78;;;;;;;9.34;39.32;94372.63;5082888;28;20421;-76
2022/04/15 00:51:10;;;;;;;9.23;3.15;;;;;;;9.35;39.45;94374.19;5082831;28;20024;-76
2022/04/15 00:53:39;;;;;;;12.10;2.95;;;;;;;9.33;39.54;94374.50;5082720;28;20051;-75
2022/04/15 00:56:06;;;;;;;5.57;2.80;;;;;;;9.35;39.46;94372.31;5083030;28;20283;-74
2022/04/15 00:58:33;;;;;;;8.23;3.58;;;;;;;9.34;39.07;94373.41;5083008;28;20028;-75
2022/04/15 01:01:00;;;;;;;7.53;2.55;;;;;;;9.33;39.79;94379.03;5064808;28;20059;-75
2022/04/15 01:03:26;;;;;;;12.07;3.20;;;;;;;9.31;39.21;94384.63;5082547;28;20077;-75
2022/04/15 01:05:59;;;;;;;8.18;3.53;;;;;;;9.32;39.50;94388.06;5082512;28;20307;-74
2022/04/15 01:08:28;;;;;;;5.53;3.40;;;;;;;9.29;39.80;94375.38;5082690;28;20024;-75
2022/04/15 01:10:58;;;;;;;8.77;3.22;;;;;;;9.22;39.32;94383.72;5082274;28;20052;-75
2022/04/15 01:13:26;;;;;;;9.02;3.53;;;;;;;9.22;39.84;94376.53;5082541;28;20044;-74
2022/04/15 01:15:54;;;;;;;6.25;3.10;;;;;;;9.22;39.54;94384.53;5082518;28;20020;-74
2022/04/15 01:18:19;;;;;;;19.63;3.28;;;;;;;9.24;40.51;94382.34;5082440;28;20028;-74
2022/04/15 01:20:48;;;;;;;12.50;2.90;;;;;;;9.20;40.65;94376.03;5082393;28;20406;-74
2022/04/15 01:23:14;;;;;;;5.82;2.88;;;;;;;9.16;40.50;94369.72;5082615;28;20066;-74
2022/04/15 01:25:39;;;;;;;8.60;3.20;;;;;;;9.14;40.01;94376.38;5082230;28;20215;-74
2022/04/15 01:28:06;;;;;;;5.88;2.78;;;;;;;9.17;40.33;94373.16;5082355;28;20040;-74
2022/04/15 01:30:31;;;;;;;17.02;3.55;;;;;;;9.14;41.07;94376.38;5082370;28;20148;-75
2022/04/15 01:32:57;;;;;;;7.43;2.90;;;;;;;9.08;41.47;94372.25;5082229;28;20031;-74
2022/04/15 01:35:22;;;;;;;7.35;2.72;;;;;;;8.97;42.40;94364.41;5085968;28;20079;-74
2022/04/15 01:37:49;;;;;;;5.95;2.80;;;;;;;8.89;42.76;94362.41;5085469;28;20027;-74
2022/04/15 01:40:16;;;;;;;5.85;2.80;;;;;;;8.82;42.73;94368.13;5086483;28;20043;-74
2022/04/15 01:42:46;;;;;;;7.47;3.13;;;;;;;8.68;43.19;94363.81;5086142;28;20027;-74
2022/04/15 01:45:12;;;;;;;6.57;2.50;;;;;;;8.63;43.46;94349.53;5086114;28;20016;-73
2022/04/15 01:47:38;;;;;;;7.00;2.67;;;;;;;8.60;43.30;94355.41;5086161;28;20093;-75
2022/04/15 01:50:05;;;;;;;17.13;5.25;;;;;;;8.54;43.73;94356.56;5086281;28;20062;-74
2022/04/15 01:52:31;;;;;;;6.90;2.45;;;;;;;8.51;44.00;94357.16;5086136;28;20028;-72
2022/04/15 01:54:56;;;;;;;5.07;2.53;;;;;;;8.46;44.16;94349.22;5085752;28;20266;-73
2022/04/15 01:57:21;;;;;;;6.32;2.28;;;;;;;8.36;44.30;94344.03;5085625;28;20062;-73
2022/04/15 01:59:47;;;;;;;6.63;2.42;;;;;;;8.33;44.63;94355.25;5085697;28;20314;-73
2022/04/15 02:02:13;;;;;;;6.60;3.40;;;;;;;8.25;44.15;94348.69;5085903;28;20073;-75
2022/04/15 02:04:39;;;;;;;6.82;2.67;;;;;;;8.25;44.00;94340.75;5085947;28;20024;-73
2022/04/15 02:07:04;;;;;;;6.88;2.45;;;;;;;8.21;44.00;94343.16;5085836;28;20306;-73
2022/04/15 02:09:30;;;;;;;5.07;2.60;;;;;;;8.23;44.23;94342.88;5086052;28;20040;-73
2022/04/15 02:11:56;;;;;;;6.35;3.38;;;;;;;8.19;44.60;94344.53;5085573;28;20020;-73
2022/04/15 02:14:22;;;;;;;5.72;2.50;;;;;;;8.18;44.22;94337.63;5085610;28;20020;-73
2022/04/15 02:16:48;;;;;;;4.32;2.42;;;;;;;8.14;44.53;94340.09;5085503;28;20020;-74
2022/04/15 02:19:14;;;;;;;5.35;2.33;;;;;;;8.17;44.49;94342.16;5085533;28;20372;-74
2022/04/15 02:21:40;;;;;;;5.40;2.55;;;;;;;8.15;44.37;94336.34;5085445;28;20024;-74
2022/04/15 02:24:06;;;;;;;6.13;2.97;;;;;;;8.12;44.29;94333.47;5085645;28;20218;-74
2022/04/15 02:26:31;;;;;;;7.63;2.58;;;;;;;8.12;44.73;94341.44;5085454;28;20033;-74
2022/04/15 02:28:57;;;;;;;7.53;3.78;;;;;;;8.12;45.00;94339.59;5085089;28;20037;-74
2022/04/15 02:31:22;;;;;;;8.32;4.28;;;;;;;8.05;45.46;94333.81;5085377;28;20282;-74
2022/04/15 02:33:48;;;;;;;7.65;3.88;;;;;;;8.07;45.60;94336.97;5085237;28;20017;-73
2022/04/15 02:36:14;;;;;;;15.38;6.28;;;;;;;8.01;45.87;94340.78;5085075;28;20020;-73
2022/04/15 02:38:39;;;;;;;16.02;5.45;;;;;;;7.97;46.36;94345.06;5085075;28;20043;-73
2022/04/15 02:41:05;;;;;;;11.15;5.10;;;;;;;7.95;46.02;94336.59;5085439;28;20016;-73
2022/04/15 02:43:31;;;;;;;11.15;3.70;;;;;;;7.92;46.82;94345.16;5085013;28;20017;-73
2022/04/15 02:46:01;;;;;;;10.18;4.03;;;;;;;7.84;46.21;94336.72;5083427;28;20035;-73
2022/04/15 02:48:28;;;;;;;7.07;4.00;;;;;;;7.83;46.59;94337.78;5084867;28;20234;-73
2022/04/15 02:50:54;;;;;;;7.28;3.80;;;;;;;7.82;46.89;94346.84;5085014;28;20016;-73
2022/04/15 02:53:21;;;;;;;8.68;4.53;;;;;;;7.78;47.07;94340.50;5084930;28;20036;-73
2022/04/15 02:55:46;;;;;;;8.82;4.35;;;;;;;7.72;47.38;94346.94;5084860;28;20065;-73
2022/04/15 02:58:11;;;;;;;7.88;3.78;;;;;;;7.73;47.72;94337.91;5084564;28;20091;-73
2022/04/15 03:00:37;;;;;;;13.27;4.82;;;;;;;7.68;47.50;94348.59;5085011;28;20013;-73
2022/04/15 03:03:02;;;;;;;11.75;4.85;;;;;;;7.64;47.68;94348.34;5085051;28;20254;-73
2022/04/15 03:05:28;;;;;;;15.18;5.32;;;;;;;7.61;47.80;94340.16;5084552;28;20323;-73
2022/04/15 03:07:53;;;;;;;10.98;4.60;;;;;;;7.54;48.08;94345.81;5084592;28;20016;-73
2022/04/15 03:10:19;;;;;;;12.82;4.57;;;;;;;7.48;48.02;94346.16;5084461;28;20319;-73
2022/04/15 03:12:44;;;;;;;9.43;4.45;;;;;;;7.49;48.08;94342.41;5084332;28;20028;-73
2022/04/15 03:15:10;;;;;;;7.82;4.20;;;;;;;7.46;48.74;94337.69;5084516;28;20024;-74
2022/04/15 03:17:35;;;;;;;12.32;4.78;;;;;;;7.39;48.58;94336.16;5084660;28;20032;-73
2022/04/15 03:20:02;;;;;;;8.88;4.30;;;;;;;7.42;48.73;94340.09;5084463;28;20028;-73
2022/04/15 03:22:28;;;;;;;11.13;4.35;;;;;;;7.38;48.46;94339.09;5084200;28;20077;-73
2022/04/15 03:24:54;;;;;;;7.82;4.82;;;;;;;7.36;48.68;94342.00;5084336;28;20028;-74
2022/04/15 03:27:20;;;;;;;11.50;4.07;;;;;;;7.33;48.75;94339.16;5084061;28;20044;-73
2022/04/15 03:29:45;;;;;;;14.93;4.82;;;;;;;7.29;49.61;94336.25;5084260;28;20062;-73
2022/04/15 03:32:11;;;;;;;12.85;5.13;;;;;;;7.22;49.41;94351.69;5084159;28;20048;-73
2022/04/15 03:34:39;;;;;;;12.55;4.32;;;;;;;7.22;49.70;94349.03;5084213;28;20215;-73
2022/04/15 03:37:05;;;;;;;12.98;4.88;;;;;;;7.19;49.47;94349.63;5084167;28;20016;-73
2022/04/15 03:39:31;;;;;;;8.55;4.13;;;;;;;7.18;48.30;94358.63;5084032;28;20020;-73
2022/04/15 03:41:56;;;;;;;7.93;4.05;;;;;;;7.23;48.59;94354.06;5083887;28;20020;-73
2022/04/15 03:44:22;;;;;;;6.70;3.78;;;;;;;7.21;48.91;94355.44;5083860;28;20211;-74
2022/04/15 03:46:47;;;;;;;8.27;4.15;;;;;;;7.18;49.71;94353.31;5083665;28;20027;-74
2022/04/15 03:49:13;;;;;;;13.82;4.60;;;;;;;7.16;49.91;94358.91;5083831;28;20314;-74
2022/04/15 03:51:38;;;;;;;10.85;5.13;;;;;;;7.12;49.91;94363.19;5083698;28;20055;-73
2022/04/15 03:54:04;;;;;;;11.75;4.63;;;;;;;7.09;50.26;94362.97;5083703;28;20027;-74
2022/04/15 03:56:30;;;;;;;8.18;3.53;;;;;;;7.07;50.18;94359.81;5083198;28;20020;-73
2022/04/15 03:58:55;;;;;;;7.88;3.60;;;;;;;7.04;50.08;94363.78;5083738;28;20211;-74
2022/04/15 04:01:21;;;;;;;9.23;4.20;;;;;;;7.07;49.69;94367.75;5065760;28;20032;-73
2022/04/15 04:03:46;;;;;;;10.85;4.28;;;;;;;7.09;49.69;94365.63;5083663;28;20048;-74
2022/04/15 04:06:12;;;;;;;7.55;3.50;;;;;;;7.10;49.71;94360.00;5083326;28;20042;-73
2022/04/15 04:08:37;;;;;;;8.82;3.75;;;;;;;7.09;49.70;94365.63;5083332;28;20055;-73
2022/04/15 04:11:03;;;;;;;7.20;3.47;;;;;;;7.13;49.81;94370.06;5083108;28;20273;-73
2022/04/15 04:13:28;;;;;;;12.60;3.53;;;;;;;7.11;49.74;94361.59;5083091;28;20059;-72
2022/04/15 04:15:54;;;;;;;5.28;2.80;;;;;;;7.12;49.63;94367.69;5083119;28;20025;-72
2022/04/15 04:18:21;;;;;;;7.85;2.70;;;;;;;7.13;49.25;94370.06;5082948;28;20314;-72
2022/04/15 04:20:48;;;;;;;9.50;2.35;;;;;;;7.18;49.24;94363.94;5083179;28;20047;-74
2022/04/15 04:23:13;;;;;;;9.98;3.20;;;;;;;7.22;49.17;94372.91;5083108;28;20204;-74
2022/04/15 04:25:39;;;;;;;5.20;2.75;;;;;;;7.27;48.96;94364.13;5082824;28;20045;-73
2022/04/15 04:28:05;;;;;;;7.00;3.30;;;;;;;7.30;48.80;94372.31;5082924;28;20039;-73
2022/04/15 04:30:30;;;;;;;10.80;2.70;;;;;;;7.35;48.72;94372.28;5083095;28;20217;-73
2022/04/15 04:32:58;;;;;;;11.40;2.85;;;;;;;7.39;48.51;94370.63;5082899;28;20096;-73
2022/04/15 04:35:23;;;;;;;6.72;2.90;;;;;;;7.45;48.22;94384.66;5082937;28;20023;-73
2022/04/15 04:37:49;;;;;;;9.88;3.42;;;;;;;7.49;48.06;94380.38;5082796;28;20202;-74
2022/04/15 04:40:15;;;;;;;8.20;3.75;;;;;;;7.58;47.72;94375.22;5082739;28;20016;-74
2022/04/15 04:42:42;;;;;;;14.07;3.85;;;;;;;7.63;47.71;94375.16;5082563;28;20017;-74
2022/04/15 04:45:10;;;;;;;19.67;3.20;;;;;;;7.73;47.62;94383.00;5082373;28;20016;-73
2022/04/15 04:47:37;;;;;;;17.08;3.28;;;;;;;7.81;47.92;94377.09;5082985;28;20094;-73
2022/04/15 04:50:04;;;;;;;23.67;5.20;;;;;;;7.92;47.74;94382.31;5082718;28;20020;-73
2022/04/15 04:52:29;;;;;;;18.23;3.70;;;;;;;7.96;47.48;94388.63;5082472;28;20029;-74
2022/04/15 04:54:55;;;;;;;21.10;6.60;;;;;;;8.04;47.42;94386.13;5082542;28;20885;-74
2022/04/15 04:57:20;;;;;;;19.25;6.53;;;;;;;8.12;46.63;94383.91;5082608;28;20267;-73
2022/04/15 04:59:46;;;;;;;25.23;6.80;;;;;;;8.20;46.35;94389.41;5082607;28;20031;-74
2022/04/15 05:02:12;;;;;;;18.73;8.10;;;;;;;8.27;46.54;94383.72;5082683;28;20204;-74
2022/04/15 05:04:39;;;;;;;21.17;8.35;;;;;;;8.38;46.29;94385.16;5082689;28;20020;-73
2022/04/15 05:07:05;;;;;;;17.38;7.57;;;;;;;8.47;46.26;94390.69;5082359;28;20033;-73
2022/04/15 05:09:30;;;;;;;22.70;7.95;;;;;;;8.58;46.19;94383.34;5081768;28;20028;-74
2022/04/15 05:11:56;;;;;;;31.73;7.75;;;;;;;8.68;45.98;94387.75;5082632;28;20027;-73
2022/04/15 05:14:21;;;;;;;28.35;9.50;;;;;;;8.77;45.67;94396.63;5082264;28;20024;-73
2022/04/15 05:16:47;;;;;;;20.50;8.15;;;;;;;8.87;45.49;94393.03;5082467;28;20070;-73
2022/04/15 05:19:13;;;;;;;28.75;8.02;;;;;;;9.00;45.15;94395.75;5082053;28;20024;-74
2022/04/15 05:21:39;;;;;;;28.10;7.28;;;;;;;9.08;44.88;94389.00;5082544;28;20020;-74
2022/04/15 05:24:06;;;;;;;28.33;8.30;;;;;;;9.21;44.86;94392.78;5082151;28;20349;-74
2022/04/15 05:26:33;;;;;;;20.75;8.55;;;;;;;9.23;45.11;94395.94;5082004;28;20074;-73
2022/04/15 05:28:59;;;;;;;23.48;6.95;;;;;;;9.26;45.10;94395.38;5082094;28;20353;-74
2022/04/15 05:31:24;;;;;;;25.80;7.13;;;;;;;9.24;46.12;94397.53;5081955;28;20020;-74
2022/04/15 05:33:50;;;;;;;37.70;7.53;;;;;;;9.19;45.83;94387.75;5082231;28;20199;-74
2022/04/15 05:36:16;;;;;;;17.23;6.38;;;;;;;9.21;45.44;94401.53;5082239;28;20027;-73
2022/04/15 05:38:42;;;;;;;15.43;6.65;;;;;;;9.23;45.10;94394.06;5081785;28;20027;-74
2022/04/15 05:41:07;;;;;;;19.42;6.20;;;;;;;9.20;45.22;94391.22;5082267;28;20020;-73
2022/04/15 05:43:33;;;;;;;11.85;5.78;;;;;;;9.26;44.43;94392.72;5081984;28;20021;-73
2022/04/15 05:45:58;;;;;;;25.45;7.15;;;;;;;9.28;44.23;94390.56;5082008;28;20040;-73
2022/04/15 05:48:24;;;;;;;18.98;7.25;;;;;;;9.28;44.83;94390.56;5081940;28;20021;-73
2022/04/15 05:50:49;;;;;;;30.85;8.73;;;;;;;9.32;45.12;94393.41;5081738;28;20024;-78
2022/04/15 05:53:14;;;;;;;24.98;8.05;;;;;;;9.32;45.72;94391.53;5081907;28;20218;-80
2022/04/15 05:55:40;;;;;;;20.40;7.28;;;;;;;9.27;45.20;94391.63;5081862;28;20239;-80
2022/04/15 05:58:07;;;;;;;30.13;9.30;;;;;;;9.38;46.35;94392.22;5082289;28;20035;-80
2022/04/15 06:00:33;;;;;;;17.45;8.43;;;;;;;9.37;45.65;94388.78;5082185;28;20310;-86
2022/04/15 06:02:58;;;;;;;22.80;8.90;;;;;;;9.39;46.41;94391.16;5083840;28;20050;-86
2022/04/15 06:05:24;;;;;;;15.98;7.78;;;;;;;9.52;45.52;94389.59;5081881;28;20024;-87
2022/04/15 06:07:51;;;;;;;19.33;8.60;;;;;;;9.41;44.62;94381.81;5064099;28;20039;-84
2022/04/15 06:10:16;;;;;;;21.52;7.50;;;;;;;9.57;45.35;94390.31;5081846;28;20043;-82
2022/04/15 06:13:04;;;;;;;23.63;7.45;;;;;;;9.63;44.11;94394.47;5081893;28;20091;-83
2022/04/15 06:15:33;;;;;;;20.48;8.52;;;;;;;9.59;45.76;94395.34;5081849;28;20025;-78
2022/04/15 06:18:00;;;;;;;24.17;7.65;;;;;;;9.69;45.13;94386.38;5082002;28;20025;-77
2022/04/15 06:20:26;;;;;;;33.97;8.70;;;;;;;9.78;45.11;94393.38;5083481;28;20364;-77
2022/04/15 06:22:51;;;;;;;23.95;8.48;;;;;;;9.93;45.20;94388.84;5085478;28;20025;-75
2022/04/15 06:25:17;;;;;;;29.40;10.73;;;;;;;10.04;44.69;94392.91;5085233;28;20048;-76
2022/04/15 06:27:43;;;;;;;22.08;7.22;;;;;;;10.14;42.81;94390.06;5085216;28;20052;-76
2022/04/15 06:30:09;;;;;;;20.73;7.50;;;;;;;10.24;42.27;94397.06;5085323;28;20020;-76
2022/04/15 06:32:35;;;;;;;18.35;8.57;;;;;;;10.34;42.19;94390.75;5085173;28;20032;-76
2022/04/15 06:35:01;;;;;;;24.75;8.70;;;;;;;10.47;41.21;94391.84;5085128;28;20025;-76
2022/04/15 06:37:27;;;;;;;16.02;8.25;;;;;;;10.54;41.96;94382.34;5085044;28;20025;-76
2022/04/15 06:39:52;;;;;;;27.17;7.93;;;;;;;10.69;41.82;94372.44;5085098;28;20023;-76
2022/04/15 06:42:21;;;;;;;16.15;7.35;;;;;;;10.77;40.75;94379.72;5084979;28;20020;-74
2022/04/15 06:44:47;;;;;;;19.35;7.63;;;;;;;10.85;42.45;94373.66;5084889;28;20029;-75
2022/04/15 06:47:13;;;;;;;24.50;8.15;;;;;;;10.91;41.40;94380.47;5084904;28;20027;-76
2022/04/15 06:49:38;;;;;;;24.20;7.95;;;;;;;10.85;41.24;94379.00;5085121;28;20070;-79
2022/04/15 06:52:56;;;;;;;15.98;7.72;;;;;;;10.88;41.14;94375.72;5085230;28;20021;-80
2022/04/15 06:55:22;;;;;;;24.48;7.55;;;;;;;11.03;40.64;94374.56;5072881;28;20033;-79
2022/04/15 06:57:47;;;;;;;19.13;8.57;;;;;;;11.18;40.20;94378.78;5084771;28;20055;-78
2022/04/15 07:00:13;;;;;;;25.90;9.40;;;;;;;11.30;39.83;94376.34;5084774;28;20379;-83
2022/04/15 07:02:41;;;;;;;25.25;9.15;;;;;;;11.45;39.13;94377.84;5067296;28;20024;-80
2022/04/15 07:05:09;;;;;;;22.50;8.40;;;;;;;11.54;38.98;94380.53;5066829;28;20223;-82
2022/04/15 07:07:38;;;;;;;18.23;8.05;;;;;;;11.52;38.50;94366.72;5084787;28;20315;-80
2022/04/15 07:10:08;;;;;;;26.55;7.40;;;;;;;11.65;38.19;94373.88;5084700;28;20028;-78
2022/04/15 07:12:34;;;;;;;23.00;8.00;;;;;;;11.75;37.51;94370.16;5084380;28;20310;-81
2022/04/15 07:15:00;;;;;;;20.35;7.43;;;;;;;11.85;37.57;94359.19;5084460;28;20326;-82
2022/04/15 07:17:25;;;;;;;22.10;6.38;;;;;;;11.92;37.81;94361.44;5066741;28;20051;-81
2022/04/15 07:19:51;;;;;;;21.77;7.07;;;;;;;12.10;37.40;94365.75;5084470;28;20318;-82
2022/04/15 07:22:21;;;;;;;19.90;6.32;;;;;;;12.17;36.70;94366.09;5084813;28;20020;-88
2022/04/15 07:24:47;;;;;;;18.92;6.35;;;;;;;12.31;36.36;94359.81;5084756;28;20113;-85
2022/04/15 07:27:13;;;;;;;14.45;5.90;;;;;;;12.42;36.06;94366.47;5084213;28;20040;-83
2022/04/15 07:29:39;;;;;;;23.63;6.85;;;;;;;12.45;35.46;94358.59;5084650;28;20035;-86
2022/04/15 07:32:04;;;;;;;13.57;6.20;;;;;;;12.56;35.42;94358.31;5083873;28;20092;-81
2022/04/15 07:34:30;;;;;;;13.05;6.80;;;;;;;12.61;35.81;94358.94;5084447;28;20172;-80
2022/04/15 07:36:59;;;;;;;25.90;7.13;;;;;;;12.67;35.71;94356.13;5084112;28;20013;-77
2022/04/15 07:39:25;;;;;;;18.17;6.47;;;;;;;12.79;34.82;94358.94;5084261;28;20047;-78
2022/04/15 07:41:51;;;;;;;23.10;6.38;;;;;;;12.90;34.63;94359.41;5084369;28;20020;-79
2022/04/15 07:44:17;;;;;;;17.20;5.68;;;;;;;13.03;33.50;94358.47;5084114;28;20020;-79
2022/04/15 07:46:45;;;;;;;22.83;6.25;;;;;;;13.19;33.45;94348.88;5083935;28;20026;-79
2022/04/15 07:49:11;;;;;;;16.23;6.53;;;;;;;13.32;33.49;94352.47;5084242;28;20021;-78
2022/04/15 07:51:37;;;;;;;23.15;5.82;;;;;;;13.37;33.82;94355.00;5083986;28;20027;-78
2022/04/15 07:54:04;;;;;;;16.20;5.03;;;;;;;13.46;33.33;94354.22;5083988;28;20020;-78
2022/04/15 07:56:30;;;;;;;15.88;5.75;;;;;;;13.57;33.27;94358.09;5084376;28;20017;-84
2022/04/15 07:58:56;;;;;;;10.93;4.15;;;;;;;13.69;32.87;94357.44;5084186;28;20264;-82
2022/04/15 08:01:21;;;;;;;23.40;5.43;;;;;;;13.71;33.09;94360.59;5083758;28;20107;-80
2022/04/15 08:03:48;;;;;;;18.58;4.68;;;;;;;13.86;32.97;94362.75;5083908;28;20040;-77
2022/04/15 08:06:14;;;;;;;11.10;4.93;;;;;;;13.99;32.17;94358.28;5083781;28;20036;-74
2022/04/15 08:08:39;;;;;;;17.92;4.82;;;;;;;14.11;31.91;94350.34;5084125;28;20368;-77
2022/04/15 08:11:05;;;;;;;11.88;5.40;;;;;;;14.16;31.47;94349.38;5083677;28;20056;-77
2022/04/15 08:13:32;;;;;;;15.50;5.40;;;;;;;14.20;32.08;94356.44;5083830;28;20276;-75
2022/04/15 08:15:58;;;;;;;14.00;4.80;;;;;;;14.31;32.31;94338.09;5083607;28;20024;-77
2022/04/15 08:18:24;;;;;;;17.98;5.20;;;;;;;14.47;32.17;94346.38;5083489;28;20077;-80
2022/04/15 08:20:51;;;;;;;11.35;5.13;;;;;;;14.48;31.70;94339.88;5084024;28;20087;-81
2022/04/15 08:23:17;;;;;;;20.45;5.30;;;;;;;14.52;32.05;94334.66;5083915;28;20255;-77
2022/04/15 08:25:44;;;;;;;14.32;4.70;;;;;;;14.55;32.41;94334.78;5083927;28;20257;-87
2022/04/15 08:28:10;;;;;;;12.35;5.10;;;;;;;14.60;32.34;94331.94;5085412;28;20052;-87
2022/04/15 08:30:37;;;;;;;13.52;4.70;;;;;;;14.74;33.01;94337.06;5084644;28;20040;-81
2022/04/15 08:33:05;;;;;;;15.07;4.93;;;;;;;14.87;33.21;94329.84;5083741;28;20036;-79
2022/04/15 08:35:31;;;;;;;18.27;4.93;;;;;;;15.05;32.66;94336.63;5065539;28;20023;-77
2022/04/15 08:37:57;;;;;;;21.20;5.93;;;;;;;15.13;31.88;94326.16;5083338;28;20035;-75
2022/04/15 08:40:23;;;;;;;14.35;4.95;;;;;;;15.25;31.01;94329.66;5083390;28;20223;-77
2022/04/15 08:42:49;;;;;;;15.88;5.68;;;;;;;15.27;30.03;94321.28;5082763;28;20342;-77
2022/04/15 08:45:16;;;;;;;20.33;6.57;;;;;;;15.30;31.19;94322.53;5083006;28;20074;-77
2022/04/15 08:47:41;;;;;;;17.70;5.78;;;;;;;15.35;30.24;94315.03;5083540;28;20231;-77
2022/04/15 08:50:10;;;;;;;16.38;5.88;;;;;;;15.43;29.81;94314.16;5083222;28;20096;-78
2022/04/15 08:52:36;;;;;;;13.95;4.97;;;;;;;15.50;30.05;94310.94;5083621;28;20035;-77
2022/04/15 08:55:01;;;;;;;20.40;5.53;;;;;;;15.56;29.84;94306.13;5083328;28;20311;-79
2022/04/15 08:57:27;;;;;;;13.23;4.57;;;;;;;15.63;30.61;94307.16;5083569;28;20200;-78
2022/04/15 08:59:53;;;;;;;22.80;6.10;;;;;;;15.81;30.11;94302.41;5083179;28;20052;-77
2022/04/15 09:02:33;;;;;;;10.02;4.13;;;;;;;16.00;30.37;94295.69;5083468;28;20031;-81
2022/04/15 09:04:59;;;;;;;11.00;4.22;;;;;;;16.15;30.34;94303.06;5083138;28;20192;-79
2022/04/15 09:07:29;;;;;;;10.30;4.70;;;;;;;16.33;29.69;94294.75;5082542;28;20028;-76
2022/04/15 09:09:56;;;;;;;20.15;5.47;;;;;;;16.46;29.87;94288.22;5082786;28;20020;-78
2022/04/15 09:12:26;;;;;;;10.52;6.25;;;;;;;16.61;28.14;94284.06;5082195;28;20104;-74
2022/04/15 09:14:57;;;;;;;25.02;4.40;;;;;;;16.70;28.15;94278.53;5081595;28;20190;-77
2022/04/15 09:17:26;;;;;;;13.82;4.38;;;;;;;16.80;28.35;94276.13;5082464;28;20167;-77
2022/04/15 09:19:55;;;;;;;21.42;4.50;;;;;;;16.89;28.10;94267.16;5082701;28;20024;-76
2022/04/15 09:22:20;;;;;;;15.63;4.40;;;;;;;16.99;29.09;94262.06;5082487;28;20020;-75
2022/04/15 09:24:47;;;;;;;14.57;4.30;;;;;;;17.12;29.14;94259.34;5082855;28;20138;-74
2022/04/15 09:27:14;;;;;;;13.45;4.10;;;;;;;17.22;27.97;94256.16;5082447;28;20378;-81
2022/04/15 09:29:40;;;;;;;9.80;3.70;;;;;;;17.34;27.63;94261.47;5082714;28;20225;-79
2022/04/15 09:32:14;;;;;;;8.90;4.57;;;;;;;17.45;27.27;94257.09;5082672;28;20025;-82
2022/04/15 09:35:05;;;;;;;8.35;3.95;;;;;;;17.46;27.32;94257.88;5083029;28;20221;-82
2022/04/15 09:37:44;;;;;;;9.02;4.32;;;;;;;17.53;27.40;94254.59;5081193;28;20012;-82
2022/04/15 09:40:25;;;;;;;12.48;3.63;;;;;;;17.64;27.14;94248.31;5081868;28;20040;-81
2022/04/15 09:42:52;;;;;;;16.80;3.85;;;;;;;17.72;26.61;94238.50;5082354;28;20025;-81
2022/04/15 09:45:31;;;;;;;8.80;3.63;;;;;;;17.80;26.03;94242.16;5082439;28;20334;-82
2022/04/15 09:48:10;;;;;;;10.50;3.88;;;;;;;17.88;26.73;94235.06;5082441;28;20047;-81
2022/04/15 09:50:42;;;;;;;21.67;4.00;;;;;;;17.89;25.77;94231.22;5082256;28;20127;-81
2022/04/15 09:53:20;;;;;;;5.57;3.47;;;;;;;17.94;26.08;94231.72;5081481;28;20047;-81
2022/04/15 09:55:48;;;;;;;18.13;3.65;;;;;;;17.92;26.92;94217.81;5083087;28;20016;-81
2022/04/15 09:58:14;;;;;;;7.25;3.33;;;;;;;17.97;25.35;94216.75;5084691;28;20092;-81
2022/04/15 10:00:42;;;;;;;9.55;3.83;;;;;;;18.01;25.76;94217.63;5066909;28;20024;-81
2022/04/15 10:03:11;;;;;;;13.55;3.20;;;;;;;17.97;26.49;94212.16;5084566;28;20062;-81
2022/04/15 10:05:38;;;;;;;10.35;3.55;;;;;;;18.11;25.84;94197.41;5084556;28;20402;-82
2022/04/15 10:08:05;;;;;;;16.67;3.83;;;;;;;18.24;25.98;94194.25;5084961;28;20103;-81
2022/04/15 10:10:31;;;;;;;8.50;4.15;;;;;;;18.29;25.35;94195.09;5086073;28;20089;-80
2022/04/15 10:13:01;;;;;;;9.48;3.50;;;;;;;18.34;25.87;94186.72;5085801;28;20027;-81
2022/04/15 10:15:29;;;;;;;13.00;3.88;;;;;;;18.39;24.91;94189.94;5085971;28;20035;-80
2022/04/15 10:17:55;;;;;;;9.95;3.05;;;;;;;18.49;25.22;94182.41;5086059;28;20207;-80
2022/04/15 10:20:21;;;;;;;38.22;4.15;;;;;;;18.63;24.87;94174.59;5085697;28;20092;-80
2022/04/15 10:22:46;;;;;;;21.10;5.00;;;;;;;18.73;25.26;94173.25;5085968;28;20020;-80
2022/04/15 10:25:12;;;;;;;9.32;3.42;;;;;;;18.81;25.93;94169.56;5086032;28;20048;-81
2022/04/15 10:27:37;;;;;;;10.75;3.30;;;;;;;18.98;25.55;94171.81;5085898;28;20068;-81
2022/04/15 10:30:14;;;;;;;11.32;3.97;;;;;;;19.12;25.32;94175.91;5085761;28;20437;-81
2022/04/15 10:32:57;;;;;;;11.25;3.40;;;;;;;19.27;25.47;94161.50;5085845;28;20202;-81
2022/04/15 10:35:31;;;;;;;7.78;3.08;;;;;;;19.44;25.25;94161.00;5085546;28;20040;-79
2022/04/15 10:38:01;;;;;;;13.63;3.20;;;;;;;19.54;23.39;94156.13;5085456;28;20016;-79
2022/04/15 10:40:28;;;;;;;18.70;3.47;;;;;;;19.57;23.41;94148.06;5067492;28;20208;-81
2022/04/15 10:42:53;;;;;;;14.25;3.70;;;;;;;19.63;23.74;94152.03;5085177;28;20319;-79
2022/04/15 10:45:27;;;;;;;8.10;2.85;;;;;;;19.63;23.48;94145.84;5085249;28;20066;-81
2022/04/15 10:47:58;;;;;;;7.60;3.10;;;;;;;19.67;22.15;94146.69;5085509;28;20024;-81
2022/04/15 10:50:27;;;;;;;7.55;3.08;;;;;;;19.66;22.31;94142.41;5085244;28;20051;-80
2022/04/15 10:52:52;;;;;;;13.40;3.30;;;;;;;19.65;22.08;94136.22;5085084;28;20025;-81
2022/04/15 10:55:18;;;;;;;12.23;2.80;;;;;;;19.69;22.57;94133.59;5085363;28;20039;-82
2022/04/15 10:57:43;;;;;;;12.07;3.30;;;;;;;19.75;22.78;94134.84;5084959;28;20032;-81
2022/04/15 11:03:28;;;;;;;19.05;4.35;;;;;;;19.99;23.60;94135.59;5084577;28;20028;-81
2022/04/15 11:06:03;;;;;;;15.63;3.33;;;;;;;20.14;24.02;94131.13;5084224;28;20052;-81
2022/04/15 11:08:28;;;;;;;15.27;3.20;;;;;;;20.33;22.82;94127.50;5066616;28;20031;-81
2022/04/15 11:11:01;;;;;;;6.95;2.90;;;;;;;20.44;22.42;94128.41;5084653;28;20020;-81
2022/04/15 11:13:49;;;;;;;15.95;3.38;;;;;;;20.44;21.92;94128.41;5084629;28;20051;-80
2022/04/15 11:16:16;;;;;;;18.67;2.90;;;;;;;20.52;22.74;94118.44;5083778;28;20020;-80
2022/04/15 11:18:55;;;;;;;9.10;3.47;;;;;;;20.60;21.81;94117.41;5084849;28;20070;-83
2022/04/15 11:21:36;;;;;;;8.07;2.88;;;;;;;20.75;21.37;94116.41;5084775;28;20025;-76
2022/04/15 11:24:06;;;;;;;10.70;2.88;;;;;;;20.92;21.08;94114.22;5084582;28;20059;-79
2022/04/15 11:26:34;;;;;;;26.77;5.80;;;;;;;21.10;25.23;94104.34;5084628;28;20044;-77
2022/04/15 11:29:01;;;;;;;13.82;3.78;;;;;;;21.23;23.23;94110.28;5084828;28;20043;-81
2022/04/15 11:31:31;;;;;;;14.55;3.03;;;;;;;21.48;22.52;94107.00;5084657;28;20024;-81
2022/04/15 11:34:11;;;;;;;7.25;2.50;;;;;;;21.66;21.61;94107.91;5084554;28;20012;-82
2022/04/15 11:36:39;;;;;;;13.05;3.20;;;;;;;21.93;22.07;94104.97;5084492;28;20036;-86